createdAt,value
2023-02-22T00:00:59.930Z,5.80
2023-02-22T00:03:32.544Z,5.00
2023-02-22T00:06:05.322Z,4.80
2023-02-22T00:08:35.773Z,4.40
2023-02-22T00:11:08.645Z,5.40
2023-02-22T00:13:37.667Z,4.70
2023-02-22T00:16:06.446Z,4.60
2023-02-22T00:18:34.425Z,5.40
2023-02-22T00:21:02.491Z,5.00
2023-02-22T00:23:31.941Z,4.50
2023-02-22T00:26:00.162Z,4.40
2023-02-22T00:28:31.115Z,4.90
2023-02-22T00:30:59.947Z,5.00
2023-02-22T00:33:28.204Z,5.10
2023-02-22T00:35:56.053Z,4.60
2023-02-22T00:38:25.837Z,4.50
2023-02-22T00:40:54.145Z,4.30
2023-02-22T00:43:25.093Z,5.20
2023-02-22T00:45:54.168Z,5.50
2023-02-22T00:48:26.025Z,5.20
2023-02-22T00:50:56.875Z,5.40
2023-02-22T00:53:25.547Z,5.00
2023-02-22T00:55:53.823Z,4.90
2023-02-22T00:58:22.239Z,5.20
2023-02-22T01:00:50.869Z,4.50
2023-02-22T01:03:19.756Z,5.00
2023-02-22T01:05:47.825Z,5.00
2023-02-22T01:08:17.943Z,4.90
2023-02-22T01:10:46.780Z,5.40
2023-02-22T01:13:15.562Z,5.40
2023-02-22T01:15:45.064Z,5.20
2023-02-22T01:18:13.188Z,5.30
2023-02-22T01:20:41.140Z,5.90
2023-02-22T01:23:10.651Z,5.60
2023-02-22T01:25:39.060Z,6.00
2023-02-22T01:28:07.844Z,5.60
2023-02-22T01:30:39.491Z,5.60
2023-02-22T01:33:08.023Z,4.70
2023-02-22T01:35:38.605Z,4.90
2023-02-22T01:38:08.553Z,3.90
2023-02-22T01:40:38.762Z,4.50
2023-02-22T01:43:21.005Z,4.50
2023-02-22T01:46:01.412Z,4.20
2023-02-22T01:48:31.160Z,4.70
2023-02-22T01:51:03.864Z,4.30
2023-02-22T01:53:35.392Z,4.00
2023-02-22T01:56:03.463Z,3.70
2023-02-22T01:58:33.765Z,3.50
2023-02-22T02:01:01.782Z,3.40
2023-02-22T02:03:33.178Z,3.70
2023-02-22T02:06:02.214Z,4.00
2023-02-22T02:08:51.669Z,4.00
2023-02-22T02:11:21.906Z,4.00
2023-02-22T02:13:55.280Z,3.80
2023-02-22T02:16:27.797Z,3.70
2023-02-22T02:18:55.707Z,3.40
2023-02-22T02:21:49.963Z,3.70
2023-02-22T02:24:24.011Z,3.80
2023-02-22T02:26:57.497Z,4.50
2023-02-22T02:29:34.697Z,3.60
2023-02-22T02:32:06.044Z,3.50
2023-02-22T02:35:11.512Z,5.30
2023-02-22T02:37:45.198Z,3.80
2023-02-22T02:40:45.153Z,3.40
2023-02-22T02:43:34.899Z,3.70
2023-02-22T02:46:11.695Z,3.60
2023-02-22T02:48:43.275Z,3.60
2023-02-22T02:51:11.480Z,4.30
2023-02-22T02:53:41.061Z,4.40
2023-02-22T02:56:08.986Z,3.80
2023-02-22T02:58:49.236Z,3.30
2023-02-22T03:01:36.661Z,4.00
2023-02-22T03:04:27.394Z,5.80
2023-02-22T03:07:03.386Z,4.30
2023-02-22T03:09:58.446Z,3.70
2023-02-22T03:12:33.111Z,4.60
2023-02-22T03:15:36.396Z,4.40
2023-02-22T03:18:08.912Z,3.70
2023-02-22T03:20:43.210Z,4.30
2023-02-22T03:23:35.514Z,4.40
2023-02-22T03:26:05.470Z,4.60
2023-02-22T03:28:33.953Z,4.70
2023-02-22T03:31:11.008Z,4.40
2023-02-22T03:33:42.635Z,4.70
2023-02-22T03:36:19.220Z,4.80
2023-02-22T03:38:47.320Z,4.20
2023-02-22T03:41:16.785Z,5.10
2023-02-22T03:43:49.142Z,4.60
2023-02-22T03:46:19.268Z,4.50
2023-02-22T03:49:00.061Z,4.70
2023-02-22T03:51:30.286Z,4.60
2023-02-22T03:54:00.519Z,4.30
2023-02-22T03:56:38.172Z,4.20
2023-02-22T03:59:07.747Z,4.60
2023-02-22T04:01:36.078Z,4.80
2023-02-22T04:04:04.098Z,6.40
2023-02-22T04:06:33.445Z,5.30
2023-02-22T04:09:08.722Z,4.20
2023-02-22T04:11:37.613Z,4.70
2023-02-22T04:14:05.943Z,4.80
2023-02-22T04:16:34.002Z,4.10
2023-02-22T04:19:02.004Z,4.50
2023-02-22T04:21:30.897Z,5.40
2023-02-22T04:23:59.964Z,4.40
2023-02-22T04:26:31.615Z,4.10
2023-02-22T04:29:01.940Z,4.60
2023-02-22T04:31:36.186Z,4.80
2023-02-22T04:34:06.218Z,4.60
2023-02-22T04:36:37.401Z,4.90
2023-02-22T04:39:05.533Z,4.40
2023-02-22T04:41:34.673Z,4.70
2023-02-22T04:44:03.348Z,4.70
2023-02-22T04:46:32.576Z,4.80
2023-02-22T04:49:00.579Z,4.70
2023-02-22T04:51:31.479Z,5.30
2023-02-22T04:54:22.314Z,4.70
2023-02-22T04:56:50.304Z,5.00
2023-02-22T04:59:23.280Z,5.30
2023-02-22T05:01:57.152Z,4.70
2023-02-22T05:04:27.528Z,5.50
2023-02-22T05:06:55.798Z,6.20
2023-02-22T05:09:23.648Z,6.00
2023-02-22T05:11:52.387Z,5.40
2023-02-22T05:14:20.385Z,5.70
2023-02-22T05:16:49.893Z,6.30
2023-02-22T05:19:17.860Z,6.40
2023-02-22T05:21:45.934Z,6.60
2023-02-22T05:24:14.376Z,6.30
2023-02-22T05:26:45.728Z,6.90
2023-02-22T05:29:14.556Z,6.80
2023-02-22T05:31:42.615Z,6.80
2023-02-22T05:34:11.390Z,7.80
2023-02-22T05:36:39.734Z,7.30
2023-02-22T05:39:07.718Z,7.60
2023-02-22T05:41:36.509Z,6.10
2023-02-22T05:44:04.780Z,6.40
2023-02-22T05:46:32.888Z,6.30
2023-02-22T05:49:01.114Z,6.40
2023-02-22T05:51:29.163Z,6.90
2023-02-22T05:53:57.284Z,6.80
2023-02-22T05:56:27.127Z,6.60
2023-02-22T05:58:55.288Z,7.10
2023-02-22T06:01:23.289Z,6.70
2023-02-22T06:03:51.892Z,6.70
2023-02-22T06:06:22.212Z,6.50
2023-02-22T06:08:50.647Z,6.70
2023-02-22T06:11:19.841Z,7.10
2023-02-22T06:13:51.605Z,6.70
2023-02-22T06:16:23.902Z,8.10
2023-02-22T06:18:52.028Z,6.60
2023-02-22T06:21:20.111Z,5.90
2023-02-22T06:23:48.583Z,6.90
2023-02-22T06:26:17.698Z,6.40
2023-02-22T06:28:46.601Z,7.30
2023-02-22T06:31:15.212Z,7.30
2023-02-22T06:33:43.449Z,7.20
2023-02-22T06:36:12.004Z,6.60
2023-02-22T06:38:40.511Z,7.20
2023-02-22T06:41:09.058Z,7.70
2023-02-22T06:43:37.327Z,7.20
2023-02-22T06:46:05.677Z,8.60
2023-02-22T06:48:34.194Z,9.00
2023-02-22T06:51:02.192Z,9.80
2023-02-22T06:53:30.145Z,9.90
2023-02-22T06:55:58.224Z,10.00
2023-02-22T06:58:29.149Z,9.30
2023-02-22T07:00:57.181Z,9.90
2023-02-22T07:03:25.311Z,9.90
2023-02-22T07:05:53.336Z,9.80
2023-02-22T07:08:35.770Z,9.50
2023-02-22T07:11:05.999Z,9.50
2023-02-22T07:13:34.205Z,8.90
2023-02-22T07:16:03.344Z,9.70
2023-02-22T07:18:31.648Z,8.60
2023-02-22T07:21:05.012Z,9.90
2023-02-22T07:23:33.631Z,9.00
2023-02-22T07:26:02.002Z,8.10
2023-02-22T07:28:30.540Z,9.90
2023-02-22T07:30:59.031Z,8.10
2023-02-22T07:33:26.932Z,8.70
2023-02-22T07:35:55.009Z,8.10
2023-02-22T07:38:23.215Z,8.00
2023-02-22T07:40:51.382Z,8.40
2023-02-22T07:43:21.454Z,8.30
2023-02-22T07:45:50.336Z,7.80
2023-02-22T07:48:18.903Z,7.50
2023-02-22T07:50:47.268Z,7.90
2023-02-22T07:53:18.172Z,8.70
2023-02-22T07:55:46.371Z,8.10
2023-02-22T07:58:15.642Z,8.30
2023-02-22T08:00:49.897Z,8.70
2023-02-22T08:03:19.246Z,8.00
2023-02-22T08:05:48.852Z,7.10
2023-02-22T08:08:19.712Z,8.80
2023-02-22T08:10:48.959Z,8.00
2023-02-22T08:13:18.169Z,8.40
2023-02-22T08:15:47.224Z,8.50
2023-02-22T08:18:18.463Z,7.60
2023-02-22T08:20:48.226Z,8.30
2023-02-22T08:23:16.978Z,7.70
2023-02-22T08:25:45.165Z,7.60
2023-02-22T08:28:16.030Z,7.70
2023-02-22T08:30:44.196Z,8.80
2023-02-22T08:33:14.647Z,8.40
2023-02-22T08:35:42.727Z,7.20
2023-02-22T08:38:18.277Z,8.60
2023-02-22T08:40:48.233Z,8.60
2023-02-22T08:43:16.936Z,9.80
2023-02-22T08:45:45.463Z,10.20
2023-02-22T08:48:14.519Z,10.10
2023-02-22T08:50:42.452Z,10.30
2023-02-22T08:53:11.013Z,8.40
2023-02-22T08:55:42.856Z,8.70
2023-02-22T08:58:12.334Z,9.30
2023-02-22T09:00:41.183Z,9.70
2023-02-22T09:03:10.929Z,9.60
2023-02-22T09:05:39.083Z,10.10
2023-02-22T09:08:07.460Z,9.30
2023-02-22T09:10:35.843Z,9.50
2023-02-22T09:13:06.799Z,9.50
2023-02-22T09:15:36.347Z,11.00
2023-02-22T09:18:05.054Z,11.70
2023-02-22T09:20:35.968Z,10.30
2023-02-22T09:23:05.266Z,8.20
2023-02-22T09:25:34.279Z,8.60
2023-02-22T09:28:02.495Z,8.20
2023-02-22T09:30:35.052Z,7.30
2023-02-22T09:33:06.129Z,7.70
2023-02-22T09:35:36.352Z,8.40
2023-02-22T09:38:06.417Z,7.70
2023-02-22T09:40:41.055Z,8.60
2023-02-22T09:43:35.885Z,9.20
2023-02-22T09:46:13.822Z,8.40
2023-02-22T09:48:57.866Z,8.10
2023-02-22T09:51:38.163Z,7.50
2023-02-22T09:54:10.830Z,8.00
2023-02-22T09:56:39.538Z,8.20
2023-02-22T09:59:07.536Z,9.40
2023-02-22T10:01:46.511Z,8.20
2023-02-22T10:04:26.581Z,7.80
2023-02-22T10:07:13.192Z,7.40
2023-02-22T10:09:44.884Z,7.30
2023-02-22T10:12:28.527Z,7.80
2023-02-22T10:15:05.436Z,7.50
2023-02-22T10:17:50.459Z,8.50
2023-02-22T10:20:54.611Z,7.40
2023-02-22T10:23:44.560Z,7.00
2023-02-22T10:26:19.002Z,8.10
2023-02-22T10:29:01.464Z,6.90
2023-02-22T10:31:34.380Z,6.60
2023-02-22T10:34:05.766Z,7.40
2023-02-22T10:36:39.065Z,6.90
2023-02-22T10:39:27.401Z,7.60
2023-02-22T10:41:57.323Z,7.00
2023-02-22T10:44:25.516Z,7.30
2023-02-22T10:46:53.869Z,7.10
2023-02-22T10:49:23.080Z,7.80
2023-02-22T10:52:01.457Z,7.00
2023-02-22T10:54:34.926Z,6.80
2023-02-22T10:57:04.066Z,6.60
2023-02-22T10:59:34.388Z,6.40
2023-02-22T11:02:29.586Z,7.10
2023-02-22T11:04:59.947Z,6.20
2023-02-22T11:07:30.688Z,5.80
2023-02-22T11:10:00.839Z,6.10
2023-02-22T11:12:34.021Z,5.80
2023-02-22T11:15:17.227Z,6.20
2023-02-22T11:17:47.087Z,6.30
2023-02-22T11:20:25.706Z,6.50
2023-02-22T11:22:55.811Z,5.90
2023-02-22T11:25:29.574Z,6.00
2023-02-22T11:28:10.156Z,6.40
2023-02-22T11:30:38.460Z,6.30
2023-02-22T11:33:23.625Z,5.50
2023-02-22T11:35:54.635Z,5.40
2023-02-22T11:38:23.661Z,6.20
2023-02-22T11:41:17.796Z,5.90
2023-02-22T11:43:50.311Z,5.80
2023-02-22T11:46:28.140Z,5.70
2023-02-22T11:49:06.881Z,6.00
2023-02-22T11:52:07.983Z,5.70
2023-02-22T11:54:46.345Z,5.80
2023-02-22T11:57:30.050Z,6.00
2023-02-22T12:00:16.693Z,5.20
2023-02-22T12:02:57.710Z,5.20
2023-02-22T12:05:37.942Z,5.00
2023-02-22T12:08:28.319Z,5.20
2023-02-22T12:11:34.924Z,4.80
2023-02-22T12:14:24.571Z,5.20
2023-02-22T12:17:02.774Z,4.30
2023-02-22T12:19:32.221Z,4.30
2023-02-22T12:22:02.469Z,4.20
2023-02-22T12:24:34.725Z,5.20
2023-02-22T12:27:32.456Z,4.80
2023-02-22T12:30:04.683Z,5.10
2023-02-22T12:32:46.505Z,4.70
2023-02-22T12:35:27.404Z,4.70
2023-02-22T12:38:05.413Z,4.80
2023-02-22T12:40:38.009Z,4.70
2023-02-22T12:43:27.030Z,4.60
2023-02-22T12:48:46.672Z,5.20
2023-02-22T12:51:27.070Z,4.30
2023-02-22T12:54:01.463Z,4.50
2023-02-22T12:56:55.206Z,4.20
2023-02-22T12:59:41.134Z,5.20
2023-02-22T13:02:32.780Z,4.60
2023-02-22T13:05:01.712Z,4.50
2023-02-22T13:07:46.690Z,4.80
2023-02-22T13:10:42.668Z,5.10
2023-02-22T13:13:24.216Z,4.50
2023-02-22T13:16:34.623Z,5.20
2023-02-22T13:19:08.810Z,4.70
2023-02-22T13:22:04.886Z,4.80
2023-02-22T13:24:43.974Z,4.50
2023-02-22T13:27:28.092Z,6.50
2023-02-22T13:29:58.959Z,5.30
2023-02-22T13:32:47.023Z,6.30
2023-02-22T13:35:36.569Z,5.30
2023-02-22T13:38:16.675Z,5.90
2023-02-22T13:40:44.578Z,5.60
2023-02-22T13:43:31.076Z,5.50
2023-02-22T13:46:22.324Z,5.70
2023-02-22T13:48:51.159Z,6.10
2023-02-22T13:51:22.127Z,5.80
2023-02-22T13:53:55.884Z,6.20
2023-02-22T13:56:25.135Z,5.70
2023-02-22T13:58:55.119Z,6.40
2023-02-22T14:01:39.936Z,5.80
2023-02-22T14:04:23.701Z,6.50
2023-02-22T14:06:51.731Z,5.70
2023-02-22T14:09:48.396Z,5.70
2023-02-22T14:12:29.005Z,6.10
2023-02-22T14:15:28.036Z,6.70
2023-02-22T14:17:57.067Z,5.60
2023-02-22T14:20:43.229Z,7.40
2023-02-22T14:23:40.981Z,6.70
2023-02-22T14:26:27.505Z,6.10
2023-02-22T14:34:07.415Z,6.30
2023-02-22T14:36:56.362Z,6.90
2023-02-22T14:39:43.586Z,6.70
2023-02-22T14:42:17.980Z,6.70
2023-02-22T14:44:48.901Z,5.90
2023-02-22T14:47:28.284Z,6.60
2023-02-22T14:50:03.430Z,6.60
2023-02-22T14:52:32.927Z,6.70
2023-02-22T14:55:11.706Z,5.60
2023-02-22T14:57:46.778Z,6.10
2023-02-22T15:00:33.249Z,6.70
2023-02-22T15:03:01.310Z,5.80
2023-02-22T15:05:38.490Z,6.20
2023-02-22T15:10:43.939Z,6.60
2023-02-22T15:13:23.835Z,9.70
2023-02-22T15:16:02.126Z,8.00
2023-02-22T15:18:40.958Z,7.40
2023-02-22T15:21:25.433Z,7.40
2023-02-22T15:23:55.411Z,6.80
2023-02-22T15:26:31.503Z,8.10
2023-02-22T15:28:59.794Z,6.50
2023-02-22T15:31:36.010Z,8.10
2023-02-22T15:34:16.865Z,6.80
2023-02-22T15:36:46.413Z,6.80
2023-02-22T15:39:27.242Z,7.00
2023-02-22T15:42:06.248Z,7.60
2023-02-22T15:44:39.461Z,7.50
2023-02-22T15:47:15.903Z,7.40
2023-02-22T15:49:44.214Z,7.00
2023-02-22T15:52:22.566Z,7.40
2023-02-22T15:54:51.626Z,7.40
2023-02-22T15:57:21.647Z,6.50
2023-02-22T15:59:54.206Z,7.30
2023-02-22T16:02:38.853Z,7.40
2023-02-22T16:05:08.191Z,7.30
2023-02-22T16:07:40.998Z,7.50
2023-02-22T16:10:30.134Z,7.30
2023-02-22T16:13:05.382Z,7.60
2023-02-22T16:15:33.656Z,7.30
2023-02-22T16:18:24.583Z,7.90
2023-02-22T16:21:03.341Z,8.80
2023-02-22T16:23:33.591Z,7.90
2023-02-22T16:26:20.730Z,8.60
2023-02-22T16:28:53.476Z,8.50
2023-02-22T16:31:25.314Z,8.70
2023-02-22T16:33:54.197Z,9.60
2023-02-22T16:36:24.603Z,10.70
2023-02-22T16:38:53.747Z,10.50
2023-02-22T16:41:21.944Z,9.40
2023-02-22T16:43:51.410Z,10.60
2023-02-22T16:46:20.026Z,9.90
2023-02-22T16:48:48.450Z,10.20
2023-02-22T16:51:26.685Z,9.40
2023-02-22T16:53:55.972Z,9.80
2023-02-22T16:56:30.537Z,11.30
2023-02-22T16:59:02.884Z,10.70
2023-02-22T17:01:35.163Z,10.90
2023-02-22T17:04:06.252Z,11.30
2023-02-22T17:06:36.173Z,11.00
2023-02-22T17:09:04.036Z,11.40
2023-02-22T17:11:33.182Z,10.60
2023-02-22T17:14:01.284Z,11.90
2023-02-22T17:16:30.989Z,11.40
2023-02-22T17:19:00.179Z,10.70
2023-02-22T17:21:28.259Z,14.00
2023-02-22T17:23:56.200Z,12.70
2023-02-22T17:26:26.308Z,13.20
2023-02-22T17:28:54.391Z,11.80
2023-02-22T17:31:24.155Z,13.00
2023-02-22T17:33:52.136Z,12.40
2023-02-22T17:36:21.135Z,15.40
2023-02-22T17:38:50.063Z,14.10
2023-02-22T17:41:20.796Z,14.40
2023-02-22T17:43:49.163Z,13.40
2023-02-22T17:46:19.894Z,11.70
2023-02-22T17:48:48.371Z,11.90
2023-02-22T17:51:16.324Z,11.60
2023-02-22T17:53:44.177Z,12.20
2023-02-22T17:56:13.919Z,14.60
2023-02-22T17:58:42.117Z,13.10
2023-02-22T18:01:31.443Z,11.40
2023-02-22T18:04:01.168Z,12.20
2023-02-22T18:06:30.364Z,10.70
2023-02-22T18:08:59.104Z,11.90
2023-02-22T18:11:28.474Z,12.10
2023-02-22T18:13:57.070Z,10.80
2023-02-22T18:16:28.292Z,11.10
2023-02-22T18:18:56.783Z,10.50
2023-02-22T18:21:26.833Z,11.10
2023-02-22T18:23:55.355Z,11.10
2023-02-22T18:26:25.196Z,10.70
2023-02-22T18:28:54.469Z,11.80
2023-02-22T18:31:22.802Z,11.20
2023-02-22T18:33:51.389Z,11.90
2023-02-22T18:36:23.267Z,11.40
2023-02-22T18:38:54.208Z,10.90
2023-02-22T18:41:25.949Z,11.80
2023-02-22T18:43:55.464Z,11.70
2023-02-22T18:46:24.078Z,12.10
2023-02-22T18:48:53.880Z,11.70
2023-02-22T18:51:21.863Z,11.70
2023-02-22T18:54:00.174Z,11.60
2023-02-22T18:56:34.148Z,10.30
2023-02-22T18:59:03.424Z,9.70
2023-02-22T19:01:34.783Z,9.50
2023-02-22T19:04:03.098Z,10.00
2023-02-22T19:06:31.206Z,9.20
2023-02-22T19:09:01.393Z,9.30
2023-02-22T19:11:29.712Z,8.90
2023-02-22T19:13:58.685Z,9.40
2023-02-22T19:16:31.758Z,9.60
2023-02-22T19:19:00.137Z,9.90
2023-02-22T19:21:29.398Z,10.60
2023-02-22T19:24:06.857Z,10.40
2023-02-22T19:26:35.769Z,9.00
2023-02-22T19:29:09.671Z,10.00
2023-02-22T19:31:40.098Z,9.50
2023-02-22T19:34:10.319Z,9.30
2023-02-22T19:36:45.476Z,10.60
2023-02-22T19:39:14.847Z,11.70
2023-02-22T19:41:43.554Z,10.60
2023-02-22T19:44:12.408Z,12.40
2023-02-22T19:46:40.618Z,12.50
2023-02-22T19:49:08.741Z,10.70
2023-02-22T19:51:37.615Z,11.70
2023-02-22T19:54:06.944Z,11.10
2023-02-22T19:56:35.677Z,11.40
2023-02-22T19:59:23.704Z,11.60
2023-02-22T20:01:55.295Z,13.20
2023-02-22T20:04:30.463Z,12.90
2023-02-22T20:07:00.053Z,12.40
2023-02-22T20:09:37.410Z,12.30
2023-02-22T20:12:07.912Z,12.00
2023-02-22T20:14:36.082Z,12.10
2023-02-22T20:17:05.007Z,11.70
2023-02-22T20:19:37.137Z,10.80
2023-02-22T20:22:05.261Z,10.20
2023-02-22T20:24:33.222Z,9.00
2023-02-22T20:27:01.138Z,10.00
2023-02-22T20:29:31.586Z,10.20
2023-02-22T20:32:00.974Z,11.50
2023-02-22T20:34:33.383Z,12.50
2023-02-22T20:37:02.059Z,11.10
2023-02-22T20:39:30.363Z,11.80
2023-02-22T20:42:02.758Z,13.20
2023-02-22T20:44:30.862Z,14.00
2023-02-22T20:46:59.758Z,14.50
2023-02-22T20:49:28.068Z,14.50
2023-02-22T20:51:56.125Z,14.30
2023-02-22T20:54:24.371Z,13.40
2023-02-22T20:56:53.172Z,14.90
2023-02-22T20:59:22.012Z,14.50
2023-02-22T21:01:50.564Z,13.80
2023-02-22T21:04:18.747Z,13.40
2023-02-22T21:06:46.939Z,11.90
2023-02-22T21:09:17.758Z,12.50
2023-02-22T21:11:46.708Z,11.50
2023-02-22T21:14:18.600Z,11.60
2023-02-22T21:16:49.561Z,11.00
2023-02-22T21:19:27.323Z,11.50
2023-02-22T21:21:57.156Z,11.00
2023-02-22T21:24:26.173Z,11.80
2023-02-22T21:26:55.748Z,11.10
2023-02-22T21:29:23.916Z,12.60
2023-02-22T21:31:51.964Z,11.00
2023-02-22T21:34:21.092Z,11.10
2023-02-22T21:36:50.622Z,10.70
2023-02-22T21:39:19.151Z,10.10
2023-02-22T21:41:48.911Z,10.50
2023-02-22T21:44:17.942Z,9.20
2023-02-22T21:46:48.833Z,10.10
2023-02-22T21:49:17.308Z,9.20
2023-02-22T21:51:45.282Z,9.00
2023-02-22T21:54:13.688Z,10.30
2023-02-22T21:56:43.202Z,11.00
2023-02-22T21:59:16.618Z,11.60
2023-02-22T22:01:47.248Z,10.90
2023-02-22T22:04:19.455Z,10.40
2023-02-22T22:06:48.845Z,10.40
2023-02-22T22:09:19.934Z,9.30
2023-02-22T22:11:58.522Z,9.70
2023-02-22T22:14:27.312Z,10.30
2023-02-22T22:17:01.087Z,9.70
2023-02-22T22:19:31.119Z,9.60
2023-02-22T22:21:59.265Z,9.50
2023-02-22T22:24:29.536Z,9.70
2023-02-22T22:27:03.517Z,11.40
2023-02-22T22:29:35.282Z,10.30
2023-02-22T22:32:03.530Z,9.10
2023-02-22T22:34:34.477Z,9.30
2023-02-22T22:37:03.119Z,9.00
2023-02-22T22:39:31.641Z,9.50
2023-02-22T22:42:00.228Z,9.40
2023-02-22T22:44:32.892Z,8.30
2023-02-22T22:47:01.382Z,9.30
2023-02-22T22:49:31.488Z,8.80
2023-02-22T22:51:59.549Z,8.50
2023-02-22T22:54:27.493Z,9.40
2023-02-22T22:56:55.469Z,9.70
2023-02-22T22:59:23.875Z,8.30
2023-02-22T23:01:52.388Z,7.60
2023-02-22T23:04:24.223Z,8.70
2023-02-22T23:06:53.565Z,8.10
2023-02-22T23:09:26.374Z,8.70
2023-02-22T23:12:08.735Z,8.70
2023-02-22T23:14:38.911Z,8.30
2023-02-22T23:17:15.263Z,7.80
2023-02-22T23:19:46.981Z,7.90
2023-02-22T23:22:15.265Z,8.80
2023-02-22T23:24:45.520Z,9.50
2023-02-22T23:27:13.465Z,8.30
2023-02-22T23:29:42.300Z,8.00
2023-02-22T23:32:10.798Z,7.90
2023-02-22T23:34:41.676Z,8.80
2023-02-22T23:37:10.705Z,8.70
2023-02-22T23:39:39.260Z,8.90
2023-02-22T23:42:10.929Z,9.00
2023-02-22T23:44:40.597Z,8.80
2023-02-22T23:47:09.688Z,8.30
2023-02-22T23:49:38.493Z,8.30
2023-02-22T23:52:07.166Z,8.90
2023-02-22T23:54:40.326Z,8.30
2023-02-22T23:57:08.877Z,9.30
2023-02-22T23:59:40.666Z,9.00
